Time;durP1;ratioP1;P1;durP2;ratioP2;P2;SDS_P1;SDS_P2;PMS_P1;PMS_P2;Temp;Humidity;BMP_temperature;BMP_pressure;BME280_temperature;BME280_humidity;BME280_pressure;Samples;Min_cycle;Max_cycle;Signal;HPM_P1;HPM_P2
2022/04/19 00:01:36;;;;;;;3.27;2.30;;;18.20;63.00;;;;;;4922232;29;20841;-72
2022/04/19 00:04:08;;;;;;;3.23;2.60;;;18.20;63.10;;;;;;4937972;29;20431;-72
2022/04/19 00:06:36;;;;;;;3.13;2.10;;;18.10;63.00;;;;;;4921979;29;21190;-73
2022/04/19 00:09:03;;;;;;;3.70;2.30;;;18.10;63.10;;;;;;4937680;29;20819;-73
2022/04/19 00:11:36;;;;;;;2.47;2.10;;;18.10;63.10;;;;;;4938666;29;20447;-72
2022/04/19 00:14:07;;;;;;;2.87;2.60;;;18.10;63.10;;;;;;4937618;29;20448;-72
2022/04/19 00:16:35;;;;;;;2.97;2.40;;;18.10;63.10;;;;;;4921804;29;20431;-72
2022/04/19 00:19:04;;;;;;;2.57;2.10;;;18.00;63.00;;;;;;4937458;29;20401;-73
2022/04/19 00:21:32;;;;;;;4.27;2.67;;;18.00;63.10;;;;;;4921901;29;20459;-72
2022/04/19 00:23:58;;;;;;;2.47;2.27;;;18.00;63.10;;;;;;4937674;29;20767;-72
2022/04/19 00:26:29;;;;;;;3.60;2.47;;;18.00;63.20;;;;;;4936999;29;20401;-72
2022/04/19 00:28:57;;;;;;;2.97;2.50;;;18.00;63.20;;;;;;4937472;29;20440;-72
2022/04/19 00:31:26;;;;;;;4.60;2.50;;;17.90;63.10;;;;;;4937232;29;20444;-72
2022/04/19 00:33:52;;;;;;;6.13;2.40;;;17.90;63.10;;;;;;4937235;29;20799;-72
2022/04/19 00:36:19;;;;;;;3.17;2.70;;;17.90;63.10;;;;;;4937108;29;20416;-72
2022/04/19 00:38:50;;;;;;;3.57;2.53;;;17.90;63.10;;;;;;4922143;29;20404;-72
2022/04/19 00:41:18;;;;;;;3.73;2.40;;;17.90;63.20;;;;;;4921411;29;20424;-72
2022/04/19 00:43:46;;;;;;;3.00;2.10;;;17.80;63.10;;;;;;4937051;29;20416;-72
2022/04/19 00:46:12;;;;;;;2.10;1.90;;;17.80;63.10;;;;;;4936980;29;20775;-73
2022/04/19 00:48:38;;;;;;;2.87;2.20;;;17.80;63.20;;;;;;4936843;29;20439;-73
2022/04/19 00:51:10;;;;;;;3.07;2.07;;;17.80;63.30;;;;;;4921060;29;20463;-72
2022/04/19 00:53:42;;;;;;;3.53;2.53;;;17.70;63.20;;;;;;4905522;29;20429;-72
2022/04/19 00:56:08;;;;;;;4.17;2.77;;;17.80;63.50;;;;;;4921172;29;20443;-73
2022/04/19 00:58:34;;;;;;;3.10;2.43;;;17.70;63.40;;;;;;4921102;29;20805;-72
2022/04/19 01:01:04;;;;;;;2.07;1.90;;;17.70;63.50;;;;;;4920962;29;20415;-72
2022/04/19 01:03:33;;;;;;;3.70;3.07;;;17.70;63.50;;;;;;4921403;29;20955;-72
2022/04/19 01:06:08;;;;;;;4.40;2.80;;;17.60;63.50;;;;;;4936702;29;20946;-72
2022/04/19 01:08:38;;;;;;;3.40;2.20;;;17.60;63.50;;;;;;4936666;29;20462;-72
2022/04/19 01:14:02;;;;;;;2.83;2.47;;;17.60;63.60;;;;;;4921269;29;20536;-72
2022/04/19 01:16:31;;;;;;;3.00;2.70;;;17.60;63.70;;;;;;4920762;29;20434;-72
2022/04/19 01:19:01;;;;;;;2.80;2.50;;;17.50;63.70;;;;;;4937591;29;20483;-72
2022/04/19 01:22:04;;;;;;;3.50;2.60;;;17.50;63.70;;;;;;4920772;29;20446;-72
2022/04/19 01:24:42;;;;;;;8.17;3.30;;;17.50;63.70;;;;;;4919586;29;20407;-72
2022/04/19 01:27:09;;;;;;;3.33;2.90;;;17.50;63.90;;;;;;4934242;29;20469;-72
2022/04/19 01:29:42;;;;;;;3.73;3.00;;;17.50;63.90;;;;;;4905341;29;20432;-72
2022/04/19 01:32:20;;;;;;;5.67;3.43;;;17.40;63.80;;;;;;4920211;29;20503;-72
2022/04/19 01:34:46;;;;;;;5.00;2.70;;;17.40;63.80;;;;;;4920280;29;20411;-72
2022/04/19 01:37:21;;;;;;;2.60;2.30;;;17.40;63.80;;;;;;4935806;29;20435;-72
2022/04/19 01:42:40;;;;;;;2.73;2.50;;;17.40;63.80;;;;;;4920415;29;20515;-72
2022/04/19 01:45:07;;;;;;;3.37;2.47;;;17.30;63.70;;;;;;4935988;29;20415;-73
2022/04/19 01:47:35;;;;;;;4.40;2.93;;;17.30;63.80;;;;;;4935830;29;20435;-72
2022/04/19 01:50:02;;;;;;;3.70;2.70;;;17.30;63.80;;;;;;4904534;29;20413;-72
2022/04/19 01:52:31;;;;;;;4.47;2.90;;;17.30;63.70;;;;;;4935919;29;20406;-72
2022/04/19 01:55:01;;;;;;;2.93;2.60;;;17.30;63.80;;;;;;4935818;29;20451;-72
2022/04/19 01:57:36;;;;;;;3.67;2.73;;;17.20;63.70;;;;;;4935565;29;20442;-72
2022/04/19 02:00:05;;;;;;;2.90;2.60;;;17.20;63.80;;;;;;4904264;29;20450;-72
2022/04/19 02:02:55;;;;;;;4.30;3.00;;;17.20;63.80;;;;;;4920412;29;20422;-72
2022/04/19 02:05:22;;;;;;;2.90;2.60;;;17.20;63.90;;;;;;4935639;29;20474;-72
2022/04/19 02:07:49;;;;;;;3.90;3.20;;;17.10;63.80;;;;;;4935489;29;20443;-72
2022/04/19 02:10:17;;;;;;;4.57;3.07;;;17.10;63.90;;;;;;4935555;29;20468;-72
2022/04/19 02:12:45;;;;;;;3.10;2.73;;;17.10;63.90;;;;;;4919798;29;20422;-72
2022/04/19 02:15:31;;;;;;;3.17;2.70;;;17.10;63.90;;;;;;4922242;29;20412;-72
2022/04/19 02:18:01;;;;;;;3.40;2.70;;;17.10;64.10;;;;;;4919705;29;20550;-72
2022/04/19 02:20:28;;;;;;;2.80;2.50;;;17.00;64.00;;;;;;4935260;29;20449;-72
2022/04/19 02:22:57;;;;;;;3.60;2.80;;;17.00;64.00;;;;;;4935255;29;20524;-70
2022/04/19 02:25:26;;;;;;;3.07;2.77;;;17.00;64.00;;;;;;4919320;29;20418;-71
2022/04/19 02:27:53;;;;;;;3.50;3.07;;;17.00;64.00;;;;;;4918884;29;20536;-71
2022/04/19 02:30:23;;;;;;;4.30;2.73;;;17.00;64.10;;;;;;4934469;29;20492;-70
2022/04/19 02:32:55;;;;;;;5.93;2.60;;;16.90;63.90;;;;;;4938184;29;20416;-70
2022/04/19 02:35:27;;;;;;;4.73;3.00;;;16.90;63.90;;;;;;4935049;29;20424;-70
2022/04/19 02:37:56;;;;;;;3.30;2.50;;;16.90;64.00;;;;;;4925893;29;20481;-71
2022/04/19 02:40:28;;;;;;;3.00;2.63;;;16.90;64.00;;;;;;4953766;29;20456;-71
2022/04/19 02:42:58;;;;;;;3.47;3.07;;;16.80;64.00;;;;;;4940249;29;20490;-71
2022/04/19 02:45:28;;;;;;;4.67;3.00;;;16.80;64.10;;;;;;4953414;28;20442;-71
2022/04/19 02:48:05;;;;;;;3.53;2.73;;;16.80;64.10;;;;;;4972069;28;20442;-70
2022/04/19 02:50:45;;;;;;;3.67;2.90;;;16.80;64.10;;;;;;4972821;28;20479;-70
2022/04/19 02:53:12;;;;;;;3.57;2.97;;;16.80;64.20;;;;;;4947999;29;20460;-71
2022/04/19 02:55:43;;;;;;;3.77;3.00;;;16.80;64.20;;;;;;4953352;29;20420;-70
2022/04/19 02:58:11;;;;;;;3.57;2.43;;;16.70;64.10;;;;;;4952838;29;20482;-70
2022/04/19 03:00:38;;;;;;;4.73;3.00;;;16.70;64.20;;;;;;4934429;29;20488;-71
2022/04/19 03:03:08;;;;;;;3.60;2.43;;;16.70;64.20;;;;;;4918563;29;20762;-70
2022/04/19 03:05:40;;;;;;;3.63;3.13;;;16.70;64.20;;;;;;4934463;29;20525;-71
2022/04/19 03:08:07;;;;;;;3.67;2.93;;;16.70;64.20;;;;;;4918371;29;20443;-70
2022/04/19 03:10:41;;;;;;;3.53;3.10;;;16.70;64.30;;;;;;4918231;29;20525;-70
2022/04/19 03:13:10;;;;;;;5.13;3.37;;;16.60;64.20;;;;;;4918502;29;20486;-71
2022/04/19 03:15:40;;;;;;;4.53;3.67;;;16.60;64.20;;;;;;4918741;29;20407;-71
2022/04/19 03:18:06;;;;;;;3.67;3.10;;;16.60;64.30;;;;;;4946538;29;20454;-71
2022/04/19 03:20:38;;;;;;;3.80;3.00;;;16.60;64.30;;;;;;4933928;29;21096;-71
2022/04/19 03:28:49;;;;;;;3.53;3.00;;;16.50;64.30;;;;;;4933915;29;20488;-71
2022/04/19 03:31:18;;;;;;;3.70;3.00;;;16.50;64.40;;;;;;4965281;28;20829;-70
2022/04/19 03:33:51;;;;;;;4.00;3.00;;;16.40;64.30;;;;;;4937370;29;20417;-70
2022/04/19 03:36:23;;;;;;;3.10;2.77;;;16.40;64.30;;;;;;4953156;29;20959;-71
2022/04/19 03:38:53;;;;;;;3.00;2.77;;;16.40;64.30;;;;;;4940793;29;20427;-70
2022/04/19 03:44:07;;;;;;;3.50;2.80;;;16.40;64.40;;;;;;4933639;29;20413;-70
2022/04/19 03:47:07;;;;;;;2.53;2.33;;;16.40;64.50;;;;;;4928661;29;20425;-71
2022/04/19 03:49:26;;;;;;;4.70;3.30;;;16.30;64.40;;;;;;4952595;29;20423;-70
2022/04/19 03:51:52;;;;;;;4.43;3.07;;;16.30;64.50;;;;;;4917641;29;20516;-70
2022/04/19 03:54:20;;;;;;;3.40;2.73;;;16.30;64.60;;;;;;4933557;29;20775;-70
2022/04/19 03:56:49;;;;;;;5.17;3.17;;;16.30;64.50;;;;;;4918076;29;20476;-70
2022/04/19 03:59:18;;;;;;;4.47;3.07;;;16.20;64.50;;;;;;4919385;29;20784;-70
2022/04/19 04:01:45;;;;;;;4.60;2.90;;;16.20;64.50;;;;;;4921644;29;20426;-71
2022/04/19 04:04:13;;;;;;;4.33;3.07;;;16.20;64.50;;;;;;4922353;29;20577;-71
2022/04/19 04:06:40;;;;;;;4.40;3.10;;;16.20;64.50;;;;;;4937011;29;20951;-70
2022/04/19 04:09:10;;;;;;;5.17;3.40;;;16.20;64.50;;;;;;4935482;29;20509;-71
2022/04/19 04:11:37;;;;;;;3.13;2.83;;;16.20;64.60;;;;;;4955191;29;21246;-71
2022/04/19 04:14:15;;;;;;;5.67;3.90;;;16.20;64.60;;;;;;4935786;29;20455;-71
2022/04/19 04:16:43;;;;;;;3.37;3.07;;;16.10;64.50;;;;;;4929784;29;20517;-70
2022/04/19 04:19:12;;;;;;;4.70;3.10;;;16.10;64.60;;;;;;4936829;29;20404;-70
2022/04/19 04:21:40;;;;;;;4.10;3.07;;;16.10;64.60;;;;;;4921470;29;20426;-79
2022/04/19 04:24:09;;;;;;;3.37;2.87;;;16.10;64.60;;;;;;4935925;29;20453;-71
2022/04/19 04:26:40;;;;;;;3.20;2.90;;;16.10;64.60;;;;;;4922465;29;20451;-68
2022/04/19 04:29:12;;;;;;;4.80;3.60;;;16.00;64.60;;;;;;4936580;29;20499;-72
2022/04/19 04:31:39;;;;;;;4.93;3.33;;;16.00;64.60;;;;;;4920118;29;20534;-70
2022/04/19 04:34:10;;;;;;;4.50;3.57;;;16.00;64.60;;;;;;4920321;29;20510;-70
2022/04/19 04:36:38;;;;;;;3.47;3.17;;;16.00;64.70;;;;;;4938123;29;20437;-70
2022/04/19 04:39:04;;;;;;;3.93;3.00;;;16.00;64.70;;;;;;4939554;29;20425;-70
2022/04/19 04:41:45;;;;;;;3.50;3.20;;;16.00;64.70;;;;;;4955617;29;20460;-70
2022/04/19 04:44:14;;;;;;;4.80;3.10;;;15.90;64.70;;;;;;4955523;29;20415;-70
2022/04/19 04:49:36;;;;;;;4.90;3.50;;;15.90;64.80;;;;;;4946006;29;20451;-70
2022/04/19 04:52:11;;;;;;;3.93;3.33;;;15.90;64.90;;;;;;4956586;28;20452;-70
2022/04/19 04:54:45;;;;;;;3.73;3.23;;;15.80;64.80;;;;;;4955114;29;20441;-70
2022/04/19 04:57:19;;;;;;;3.60;3.20;;;15.80;64.90;;;;;;4955304;28;20521;-70
2022/04/19 04:59:47;;;;;;;4.50;3.30;;;15.80;64.90;;;;;;4956240;28;20429;-70
2022/04/19 05:02:13;;;;;;;3.93;3.10;;;15.80;65.00;;;;;;4955469;29;20562;-70
2022/04/19 05:04:43;;;;;;;3.80;3.10;;;15.80;65.00;;;;;;4920210;29;21163;-71
2022/04/19 05:07:15;;;;;;;4.40;3.67;;;15.70;65.00;;;;;;4920350;29;20475;-70
2022/04/19 05:09:46;;;;;;;4.13;3.53;;;15.70;65.00;;;;;;4919559;29;20430;-71
2022/04/19 05:12:14;;;;;;;5.30;4.47;;;15.70;65.10;;;;;;4946741;29;20461;-71
2022/04/19 05:14:40;;;;;;;5.37;3.80;;;15.70;65.10;;;;;;4938045;29;20433;-71
2022/04/19 05:17:10;;;;;;;4.20;3.53;;;15.70;65.20;;;;;;4954973;29;20598;-71
2022/04/19 05:19:40;;;;;;;4.63;3.50;;;15.70;65.30;;;;;;4935618;29;20924;-70
2022/04/19 05:22:11;;;;;;;3.53;3.20;;;15.60;65.20;;;;;;4935791;29;20850;-70
2022/04/19 05:24:37;;;;;;;4.23;3.77;;;15.60;65.30;;;;;;4937001;29;20458;-70
2022/04/19 05:27:05;;;;;;;3.73;3.30;;;15.60;65.40;;;;;;4938180;29;20457;-68
2022/04/19 05:29:32;;;;;;;5.43;4.10;;;15.60;65.40;;;;;;4933897;29;20458;-68
2022/04/19 05:32:02;;;;;;;4.20;3.80;;;15.60;65.50;;;;;;4950816;29;20454;-68
2022/04/19 05:34:30;;;;;;;4.70;3.80;;;15.60;65.60;;;;;;4954267;29;20502;-72
2022/04/19 05:37:01;;;;;;;3.90;3.50;;;15.60;65.60;;;;;;4939526;29;20449;-68
2022/04/19 05:39:33;;;;;;;5.47;4.10;;;15.50;65.60;;;;;;4949767;29;20458;-68
2022/04/19 05:42:00;;;;;;;3.77;3.47;;;15.50;65.70;;;;;;4938513;29;20479;-67
2022/04/19 05:44:26;;;;;;;4.97;4.47;;;15.50;65.70;;;;;;4954519;29;20467;-68
2022/04/19 05:47:00;;;;;;;4.80;3.60;;;15.50;65.80;;;;;;4954159;29;20438;-68
2022/04/19 05:49:31;;;;;;;4.93;3.90;;;15.40;65.80;;;;;;4938299;29;20459;-68
2022/04/19 05:51:57;;;;;;;4.70;3.77;;;15.40;65.70;;;;;;4953721;29;20459;-68
2022/04/19 05:54:23;;;;;;;6.30;4.37;;;15.40;65.80;;;;;;4953665;29;20458;-68
2022/04/19 05:56:56;;;;;;;5.17;4.07;;;15.40;65.90;;;;;;4955100;28;20473;-68
2022/04/19 05:59:24;;;;;;;4.47;3.77;;;15.40;66.00;;;;;;4953800;29;20533;-68
2022/04/19 06:04:52;;;;;;;4.90;3.40;;;15.40;66.30;;;;;;4938174;29;20519;-68
2022/04/19 06:07:27;;;;;;;3.83;3.43;;;15.40;66.40;;;;;;4953769;29;20436;-68
2022/04/19 06:09:53;;;;;;;5.83;4.23;;;15.40;66.50;;;;;;4953107;29;20945;-68
2022/04/19 06:12:22;;;;;;;6.43;4.40;;;15.30;66.50;;;;;;4937772;29;20954;-68
2022/04/19 06:14:53;;;;;;;5.30;3.40;;;15.30;66.50;;;;;;4937861;29;20407;-68
2022/04/19 06:17:23;;;;;;;6.67;4.07;;;15.30;66.60;;;;;;4953403;29;20430;-68
2022/04/19 06:19:54;;;;;;;5.57;3.70;;;15.30;66.60;;;;;;4937932;29;20414;-68
2022/04/19 06:22:22;;;;;;;5.50;4.20;;;15.30;66.60;;;;;;4936426;29;20420;-68
2022/04/19 06:24:59;;;;;;;4.47;4.03;;;15.30;66.70;;;;;;4953459;29;20427;-68
2022/04/19 06:27:25;;;;;;;4.90;4.00;;;15.30;66.70;;;;;;4937410;29;20797;-68
2022/04/19 06:29:57;;;;;;;8.93;4.17;;;15.30;66.70;;;;;;4953214;29;20817;-68
2022/04/19 06:32:26;;;;;;;5.80;4.40;;;15.30;66.70;;;;;;4953135;29;20492;-68
2022/04/19 06:34:58;;;;;;;5.53;4.07;;;15.30;66.70;;;;;;4953121;29;20475;-67
2022/04/19 06:37:29;;;;;;;4.90;3.93;;;15.30;66.80;;;;;;4937273;29;20457;-68
2022/04/19 06:40:06;;;;;;;6.53;4.30;;;15.30;66.80;;;;;;4954331;29;20453;-68
2022/04/19 06:42:35;;;;;;;7.23;4.17;;;15.30;66.70;;;;;;4953313;29;20428;-69
2022/04/19 06:45:19;;;;;;;5.30;4.40;;;15.30;66.80;;;;;;4953196;29;20444;-68
2022/04/19 06:48:02;;;;;;;6.87;3.73;;;15.30;66.90;;;;;;4949691;29;20446;-69
2022/04/19 06:50:37;;;;;;;5.13;3.80;;;15.30;66.90;;;;;;4916796;29;20484;-68
2022/04/19 06:53:11;;;;;;;4.30;3.63;;;15.30;66.80;;;;;;4926524;29;20756;-69
2022/04/19 06:55:58;;;;;;;5.67;4.23;;;15.30;66.80;;;;;;4922502;29;20513;-69
2022/04/19 06:58:28;;;;;;;5.33;4.33;;;15.30;66.80;;;;;;4950959;29;20450;-68
2022/04/19 07:00:54;;;;;;;5.00;4.13;;;15.30;66.80;;;;;;4950454;29;20466;-68
2022/04/19 07:03:22;;;;;;;4.73;3.77;;;15.30;66.80;;;;;;4951194;29;20934;-68
2022/04/19 07:06:13;;;;;;;4.77;3.77;;;15.30;66.80;;;;;;4950941;29;20834;-68
2022/04/19 07:08:45;;;;;;;5.33;4.00;;;15.30;66.70;;;;;;4951073;29;20454;-69
2022/04/19 07:11:12;;;;;;;5.60;4.40;;;15.30;66.70;;;;;;4917661;29;20814;-69
2022/04/19 07:13:44;;;;;;;5.40;3.80;;;15.30;66.60;;;;;;4948853;29;20424;-68
2022/04/19 07:16:15;;;;;;;5.00;4.03;;;15.30;66.50;;;;;;4934932;29;20522;-68
2022/04/19 07:18:43;;;;;;;6.57;3.60;;;15.30;66.60;;;;;;4935639;29;20458;-68
2022/04/19 07:26:47;;;;;;;4.60;3.47;;;15.30;66.40;;;;;;4951234;29;20447;-68
2022/04/19 07:29:19;;;;;;;7.10;4.50;;;15.30;66.30;;;;;;4935215;29;20467;-69
2022/04/19 07:31:49;;;;;;;4.73;3.90;;;15.30;66.20;;;;;;4951107;29;20565;-68
2022/04/19 07:34:35;;;;;;;5.20;4.07;;;15.30;66.30;;;;;;4940043;29;20458;-68
2022/04/19 07:37:04;;;;;;;5.70;4.07;;;15.30;66.10;;;;;;4954877;29;20440;-68
2022/04/19 07:39:33;;;;;;;4.90;3.83;;;15.40;66.10;;;;;;4954280;29;20789;-68
2022/04/19 07:42:04;;;;;;;6.20;4.73;;;15.40;66.20;;;;;;4954307;29;20947;-68
2022/04/19 07:44:32;;;;;;;4.27;3.63;;;15.40;66.10;;;;;;4947234;29;20452;-71
2022/04/19 07:46:58;;;;;;;4.93;4.43;;;15.40;66.10;;;;;;4938891;29;20460;-68
2022/04/19 07:49:26;;;;;;;5.73;3.93;;;15.40;66.00;;;;;;4954836;29;20444;-69
2022/04/19 07:51:57;;;;;;;5.60;4.37;;;15.40;65.90;;;;;;4954492;29;20914;-68
2022/04/19 07:54:25;;;;;;;5.03;3.60;;;15.40;65.90;;;;;;4954555;29;20540;-68
2022/04/19 07:56:58;;;;;;;6.23;4.17;;;15.40;65.90;;;;;;4943679;29;20443;-69
2022/04/19 07:59:24;;;;;;;5.20;4.00;;;15.40;65.90;;;;;;4950888;29;20429;-69
2022/04/19 08:01:54;;;;;;;4.50;4.10;;;15.40;65.80;;;;;;4954774;29;20443;-69
2022/04/19 08:04:23;;;;;;;5.97;4.50;;;15.40;66.60;;;;;;4954252;29;20446;-68
2022/04/19 08:06:53;;;;;;;5.60;4.60;;;15.40;65.80;;;;;;4954329;29;20929;-69
2022/04/19 08:09:20;;;;;;;5.27;4.33;;;15.40;65.70;;;;;;4954289;29;20435;-68
2022/04/19 08:11:52;;;;;;;5.17;4.50;;;15.50;65.70;;;;;;4938525;29;20507;-69
2022/04/19 08:14:20;;;;;;;6.20;4.20;;;15.50;65.70;;;;;;4938386;29;20469;-68
2022/04/19 08:16:48;;;;;;;5.37;4.13;;;15.50;65.70;;;;;;4922719;29;20871;-68
2022/04/19 08:19:19;;;;;;;5.27;3.97;;;15.50;65.70;;;;;;4954423;29;20987;-69
2022/04/19 08:21:46;;;;;;;5.60;4.37;;;15.50;65.60;;;;;;4953910;29;20438;-68
2022/04/19 08:24:18;;;;;;;4.23;3.83;;;15.50;65.60;;;;;;4953741;29;20456;-68
2022/04/19 08:26:45;;;;;;;6.33;4.13;;;15.50;65.60;;;;;;4930626;29;20467;-69
2022/04/19 08:29:11;;;;;;;5.80;4.40;;;15.50;65.50;;;;;;4955017;28;20820;-68
2022/04/19 08:31:37;;;;;;;4.47;4.07;;;15.50;65.50;;;;;;4937578;29;20482;-68
2022/04/19 08:34:06;;;;;;;6.20;4.87;;;15.50;65.40;;;;;;4953887;29;20430;-68
2022/04/19 08:36:34;;;;;;;4.63;3.60;;;15.50;65.30;;;;;;4937714;29;20808;-68
2022/04/19 08:39:03;;;;;;;4.43;4.03;;;15.60;65.30;;;;;;4946065;29;20418;-69
2022/04/19 08:41:30;;;;;;;5.37;4.80;;;15.60;65.30;;;;;;4938098;29;20426;-68
2022/04/19 08:43:58;;;;;;;6.07;4.27;;;15.60;65.00;;;;;;4937638;29;21044;-68
2022/04/19 08:46:28;;;;;;;6.20;4.77;;;15.60;65.10;;;;;;4953795;28;20435;-68
2022/04/19 08:48:59;;;;;;;7.93;4.90;;;15.60;65.90;;;;;;4952977;29;20443;-68
2022/04/19 08:51:27;;;;;;;5.97;5.37;;;15.70;65.10;;;;;;4954605;28;20479;-68
2022/04/19 08:59:31;;;;;;;4.50;3.77;;;15.70;64.90;;;;;;4932320;29;20497;-69
2022/04/19 09:02:00;;;;;;;6.73;5.00;;;15.80;64.90;;;;;;4953459;29;20470;-68
2022/04/19 09:04:27;;;;;;;6.50;4.87;;;15.80;64.80;;;;;;4954271;28;20424;-67
2022/04/19 09:06:55;;;;;;;5.60;4.50;;;15.80;64.80;;;;;;4953138;29;20817;-68
2022/04/19 09:09:29;;;;;;;4.87;4.20;;;15.80;64.80;;;;;;4937863;29;20447;-68
2022/04/19 09:12:06;;;;;;;7.20;4.67;;;15.90;64.90;;;;;;4936448;29;20484;-68
2022/04/19 09:14:53;;;;;;;4.93;4.43;;;15.90;64.80;;;;;;4952423;29;20488;-68
2022/04/19 09:17:33;;;;;;;4.63;4.10;;;16.00;64.80;;;;;;4953129;29;21067;-68
2022/04/19 09:20:09;;;;;;;4.40;4.00;;;16.00;64.60;;;;;;4952963;29;20433;-69
2022/04/19 09:22:37;;;;;;;5.67;4.17;;;16.00;64.50;;;;;;4953169;29;20495;-69
2022/04/19 09:25:19;;;;;;;4.83;4.13;;;16.10;64.40;;;;;;4952889;29;20431;-68
2022/04/19 09:27:48;;;;;;;5.13;4.20;;;16.10;64.20;;;;;;4952493;29;20548;-68
2022/04/19 09:30:19;;;;;;;7.63;4.10;;;16.10;64.20;;;;;;4935958;29;20493;-68
2022/04/19 09:33:09;;;;;;;5.33;4.40;;;16.20;64.30;;;;;;4953087;29;20459;-68
2022/04/19 09:35:54;;;;;;;4.03;3.60;;;16.20;64.20;;;;;;4953301;29;20430;-68
2022/04/19 09:38:49;;;;;;;4.80;3.93;;;16.20;64.00;;;;;;4945956;29;21041;-68
2022/04/19 09:41:28;;;;;;;4.63;3.67;;;16.30;64.10;;;;;;4952175;29;20425;-68
2022/04/19 09:44:07;;;;;;;7.33;4.10;;;16.30;63.90;;;;;;4929968;29;20973;-68
2022/04/19 09:46:38;;;;;;;4.73;4.00;;;16.30;63.90;;;;;;4936786;29;20477;-68
2022/04/19 09:49:05;;;;;;;4.87;3.67;;;16.40;64.00;;;;;;4941838;29;20929;-68
2022/04/19 09:51:35;;;;;;;4.03;3.63;;;16.40;63.90;;;;;;4953295;29;20878;-68
2022/04/19 09:54:07;;;;;;;6.37;3.97;;;16.40;63.90;;;;;;4953884;29;20443;-69
2022/04/19 09:56:38;;;;;;;3.60;3.00;;;16.50;64.00;;;;;;4952253;28;21022;-68
2022/04/19 09:59:05;;;;;;;4.00;3.63;;;16.50;64.00;;;;;;4952359;29;20832;-68
2022/04/19 10:09:53;;;;;;;3.50;3.20;;;16.70;63.90;;;;;;4935635;29;20434;-69
2022/04/19 10:12:20;;;;;;;3.63;3.33;;;16.70;63.90;;;;;;4953390;29;20468;-69
2022/04/19 10:14:47;;;;;;;4.47;3.30;;;16.80;64.10;;;;;;4952733;29;20422;-68
2022/04/19 10:17:17;;;;;;;3.50;3.20;;;16.80;64.10;;;;;;4951278;29;20505;-68
2022/04/19 10:19:47;;;;;;;3.60;2.67;;;16.80;64.10;;;;;;4952821;28;21125;-68
2022/04/19 10:22:14;;;;;;;4.10;3.00;;;16.80;64.10;;;;;;4951938;29;21080;-68
2022/04/19 10:24:47;;;;;;;4.30;3.07;;;16.90;64.20;;;;;;4936269;29;20505;-68
2022/04/19 10:27:18;;;;;;;2.90;2.60;;;16.90;64.20;;;;;;4951728;29;20457;-69
2022/04/19 10:29:51;;;;;;;3.77;3.37;;;16.90;64.00;;;;;;4951994;29;20540;-68
2022/04/19 10:32:34;;;;;;;6.57;2.90;;;17.00;64.20;;;;;;4951465;29;20570;-68
2022/04/19 10:35:06;;;;;;;3.30;3.00;;;17.00;64.10;;;;;;4952284;29;20425;-68
2022/04/19 10:37:33;;;;;;;2.87;2.57;;;17.10;63.90;;;;;;4952838;28;20444;-69
2022/04/19 10:39:59;;;;;;;4.50;2.77;;;17.10;63.80;;;;;;4952925;29;20421;-68
2022/04/19 10:42:48;;;;;;;3.13;2.50;;;17.10;63.80;;;;;;4953009;28;20434;-68
2022/04/19 10:45:14;;;;;;;2.87;2.67;;;17.20;63.80;;;;;;4912602;29;20444;-69
2022/04/19 10:47:53;;;;;;;2.80;2.10;;;17.20;64.00;;;;;;4950159;29;21041;-68
2022/04/19 10:50:44;;;;;;;5.67;2.63;;;17.30;64.10;;;;;;4950875;29;20456;-68
2022/04/19 10:53:11;;;;;;;2.73;2.53;;;17.30;64.00;;;;;;4945070;29;20426;-68
2022/04/19 10:56:05;;;;;;;3.80;2.57;;;17.30;64.00;;;;;;4951633;29;20433;-68
2022/04/19 10:58:43;;;;;;;2.40;2.20;;;17.40;64.10;;;;;;4951290;29;20470;-68
2022/04/19 11:01:31;;;;;;;5.43;2.80;;;17.40;64.20;;;;;;4952655;28;20413;-68
2022/04/19 11:04:00;;;;;;;3.20;2.90;;;17.50;64.20;;;;;;4951139;29;20465;-68
2022/04/19 11:06:38;;;;;;;3.30;2.73;;;17.50;64.10;;;;;;4951499;29;20446;-68
2022/04/19 11:09:09;;;;;;;3.17;2.87;;;17.50;64.10;;;;;;4956834;28;20421;-72
2022/04/19 11:11:45;;;;;;;2.77;2.53;;;17.50;64.20;;;;;;4943061;29;20828;-71
2022/04/19 11:14:17;;;;;;;2.70;2.50;;;17.60;64.20;;;;;;4960573;29;20399;-71
2022/04/19 11:16:44;;;;;;;4.67;2.63;;;17.60;64.30;;;;;;4959390;29;20502;-71
2022/04/19 11:19:23;;;;;;;3.87;2.77;;;17.70;64.40;;;;;;4943639;29;20412;-70
2022/04/19 11:22:01;;;;;;;3.50;2.67;;;17.70;64.30;;;;;;4973923;23;20998;-69
2022/04/19 11:24:58;;;;;;;3.40;2.37;;;17.70;64.40;;;;;;4961814;28;20446;-69
2022/04/19 11:27:44;;;;;;;2.57;2.37;;;17.80;64.40;;;;;;4928497;29;20439;-69
2022/04/19 11:30:13;;;;;;;3.03;2.53;;;17.80;64.50;;;;;;4961133;29;20438;-69
2022/04/19 11:32:48;;;;;;;3.20;2.50;;;17.90;64.50;;;;;;4960341;29;20444;-69
2022/04/19 11:35:19;;;;;;;3.50;2.83;;;17.90;64.60;;;;;;4961190;28;20464;-70
2022/04/19 11:37:45;;;;;;;2.47;2.27;;;18.00;64.70;;;;;;4961262;28;20437;-69
2022/04/19 11:48:50;;;;;;;3.07;2.77;;;18.10;64.00;;;;;;4961140;28;20445;-69
2022/04/19 11:51:22;;;;;;;2.70;2.50;;;18.10;64.00;;;;;;4961123;29;20868;-69
2022/04/19 11:53:52;;;;;;;2.73;2.40;;;18.20;64.10;;;;;;4959947;29;20430;-70
2022/04/19 11:56:18;;;;;;;3.60;2.60;;;18.20;63.90;;;;;;4944208;29;20496;-70
2022/04/19 11:58:50;;;;;;;3.00;2.70;;;18.20;63.90;;;;;;4959876;28;20444;-69
2022/04/19 12:01:17;;;;;;;2.60;2.40;;;18.30;64.10;;;;;;4961258;28;20407;-69
2022/04/19 12:03:43;;;;;;;3.80;2.90;;;18.30;64.10;;;;;;4959914;28;20884;-69
2022/04/19 12:06:18;;;;;;;2.53;2.33;;;18.30;64.10;;;;;;4944105;29;20415;-69
2022/04/19 12:08:52;;;;;;;4.23;2.70;;;18.40;64.10;;;;;;4960973;28;20474;-69
2022/04/19 12:11:24;;;;;;;4.53;2.70;;;18.40;64.20;;;;;;4959957;29;20453;-69
2022/04/19 12:13:53;;;;;;;2.57;2.37;;;18.40;64.00;;;;;;4960025;29;20406;-69
2022/04/19 12:16:35;;;;;;;3.33;2.30;;;18.50;64.00;;;;;;4961000;28;20971;-69
2022/04/19 12:19:07;;;;;;;2.63;2.40;;;18.50;64.80;;;;;;4959879;28;20419;-69
2022/04/19 12:21:44;;;;;;;3.00;2.70;;;18.50;63.80;;;;;;4957849;28;20443;-69
2022/04/19 12:24:19;;;;;;;2.77;2.30;;;18.60;63.80;;;;;;4956906;28;20990;-69
2022/04/19 12:27:12;;;;;;;4.70;2.93;;;18.60;63.70;;;;;;4957878;29;20536;-69
2022/04/19 12:29:58;;;;;;;4.30;2.40;;;18.60;63.70;;;;;;4953928;29;20439;-69
2022/04/19 12:32:27;;;;;;;5.00;2.63;;;18.70;63.70;;;;;;4924734;29;20995;-69
2022/04/19 12:35:09;;;;;;;2.70;2.43;;;18.70;63.70;;;;;;4956517;29;20416;-69
2022/04/19 12:37:37;;;;;;;2.70;2.50;;;18.70;63.60;;;;;;4957489;29;20444;-69
2022/04/19 12:40:04;;;;;;;3.47;2.20;;;18.70;63.60;;;;;;4956490;29;20773;-69
2022/04/19 12:42:49;;;;;;;3.57;2.80;;;18.80;63.70;;;;;;4940635;29;20422;-69
2022/04/19 12:45:18;;;;;;;4.93;2.57;;;18.80;63.50;;;;;;4956592;28;20482;-69
2022/04/19 12:47:50;;;;;;;3.83;3.23;;;18.90;63.70;;;;;;4957395;29;20435;-69
2022/04/19 12:50:18;;;;;;;3.47;2.47;;;18.90;63.50;;;;;;4956082;29;20409;-69
2022/04/19 12:52:44;;;;;;;3.40;2.97;;;18.90;63.50;;;;;;4956366;29;20421;-69
2022/04/19 12:55:10;;;;;;;3.03;2.73;;;18.90;63.40;;;;;;4956336;29;20462;-69
2022/04/19 12:57:39;;;;;;;4.50;2.73;;;19.00;63.50;;;;;;4956054;29;20962;-69
2022/04/19 13:00:09;;;;;;;2.87;2.50;;;19.00;63.40;;;;;;4940279;29;20443;-69
2022/04/19 13:02:43;;;;;;;4.10;3.17;;;19.00;63.40;;;;;;4940491;29;20909;-69
2022/04/19 13:05:11;;;;;;;3.57;2.40;;;19.10;63.40;;;;;;4956201;29;20411;-69
2022/04/19 13:13:07;;;;;;;4.07;2.70;;;19.10;63.30;;;;;;4956911;29;20399;-69
2022/04/19 13:15:38;;;;;;;4.80;2.70;;;19.20;63.30;;;;;;4957059;29;20423;-69
2022/04/19 13:18:06;;;;;;;2.83;2.50;;;19.20;63.10;;;;;;4955720;29;20822;-69
2022/04/19 13:20:33;;;;;;;3.90;2.50;;;19.20;63.20;;;;;;4955702;29;20486;-69
2022/04/19 13:22:59;;;;;;;3.93;2.80;;;19.30;63.30;;;;;;4956796;29;20835;-69
2022/04/19 13:25:25;;;;;;;4.13;2.93;;;19.30;63.30;;;;;;4956788;29;20417;-70
2022/04/19 13:27:55;;;;;;;4.37;2.67;;;19.30;63.20;;;;;;4940275;29;20457;-69
2022/04/19 13:30:23;;;;;;;3.30;2.60;;;19.40;63.20;;;;;;4956817;28;20416;-69
2022/04/19 13:32:49;;;;;;;4.50;3.07;;;19.40;63.10;;;;;;4954982;28;20961;-69
2022/04/19 13:35:15;;;;;;;3.63;2.70;;;19.40;63.00;;;;;;4956705;28;20409;-69
2022/04/19 13:40:26;;;;;;;3.13;2.53;;;19.50;62.90;;;;;;4955493;28;20416;-69
2022/04/19 13:42:52;;;;;;;3.33;2.50;;;19.50;62.60;;;;;;4939547;29;20421;-69
2022/04/19 13:45:21;;;;;;;4.20;2.50;;;19.50;62.60;;;;;;4955504;29;20488;-69
2022/04/19 13:47:48;;;;;;;2.93;2.63;;;19.60;63.50;;;;;;4956343;29;20433;-69
2022/04/19 13:50:14;;;;;;;3.23;2.50;;;19.60;62.70;;;;;;4939315;29;20933;-69
2022/04/19 13:52:43;;;;;;;5.23;2.77;;;19.60;62.80;;;;;;4956176;29;20408;-69
2022/04/19 13:55:18;;;;;;;2.50;2.30;;;19.70;62.80;;;;;;4956757;28;20404;-69
2022/04/19 13:57:49;;;;;;;3.33;2.87;;;19.70;62.70;;;;;;4955056;29;20446;-69
2022/04/19 14:00:17;;;;;;;3.03;2.47;;;19.70;62.60;;;;;;4939121;29;20421;-69
2022/04/19 14:02:44;;;;;;;3.07;2.27;;;19.80;62.70;;;;;;4956074;29;20885;-69
2022/04/19 14:05:10;;;;;;;2.37;2.17;;;19.80;62.70;;;;;;4955968;29;20416;-69